createdAt,value
2022-12-04T00:01:30.208Z,1.34
2022-12-04T00:04:01.424Z,1.44
2022-12-04T00:06:31.759Z,1.45
2022-12-04T00:09:02.440Z,1.45
2022-12-04T00:11:33.818Z,1.43
2022-12-04T00:14:07.249Z,1.45
2022-12-04T00:16:37.962Z,1.47
2022-12-04T00:19:08.106Z,1.44
2022-12-04T00:21:38.273Z,1.46
2022-12-04T00:24:08.506Z,1.45
2022-12-04T00:26:38.734Z,1.39
2022-12-04T00:29:08.851Z,1.46
2022-12-04T00:31:40.535Z,1.47
2022-12-04T00:34:10.854Z,1.48
2022-12-04T00:36:41.046Z,1.43
2022-12-04T00:39:11.270Z,1.47
2022-12-04T00:41:41.499Z,1.50
2022-12-04T00:44:11.651Z,1.49
2022-12-04T00:46:41.792Z,1.50
2022-12-04T00:49:11.927Z,1.49
2022-12-04T00:51:42.011Z,1.47
2022-12-04T00:54:12.202Z,1.48
2022-12-04T00:56:42.341Z,1.51
2022-12-04T00:59:13.703Z,1.50
2022-12-04T01:01:43.968Z,1.49
2022-12-04T01:04:14.099Z,1.49
2022-12-04T01:06:44.334Z,1.49
2022-12-04T01:09:14.512Z,1.44
2022-12-04T01:11:44.600Z,1.44
2022-12-04T01:14:14.820Z,1.43
2022-12-04T01:16:46.801Z,1.46
2022-12-04T01:19:17.065Z,1.48
2022-12-04T01:21:47.131Z,1.48
2022-12-04T01:24:17.274Z,1.47
2022-12-04T01:26:47.392Z,1.49
2022-12-04T01:29:17.593Z,1.53
2022-12-04T01:31:47.898Z,1.54
2022-12-04T01:34:18.064Z,1.49
2022-12-04T01:36:48.603Z,1.50
2022-12-04T01:39:19.017Z,1.50
2022-12-04T01:41:49.156Z,1.53
2022-12-04T01:44:21.088Z,1.57
2022-12-04T01:46:56.162Z,1.57
2022-12-04T01:49:34.409Z,1.59
2022-12-04T01:52:13.406Z,1.59
2022-12-04T01:54:47.511Z,1.61
2022-12-04T01:57:20.869Z,1.59
2022-12-04T01:59:53.518Z,1.60
2022-12-04T02:02:30.389Z,1.58
2022-12-04T02:05:02.347Z,1.60
2022-12-04T02:07:33.567Z,1.57
2022-12-04T02:10:06.812Z,1.61
2022-12-04T02:12:46.050Z,1.63
2022-12-04T02:15:16.117Z,1.65
2022-12-04T02:17:56.320Z,1.64
2022-12-04T02:20:36.984Z,1.64
2022-12-04T02:23:25.442Z,1.65
2022-12-04T02:26:13.809Z,1.64
2022-12-04T02:29:09.869Z,1.65
2022-12-04T02:31:58.355Z,1.63
2022-12-04T02:34:53.936Z,1.63
2022-12-04T02:37:47.926Z,1.65
2022-12-04T02:40:24.030Z,1.66
2022-12-04T02:43:02.809Z,1.68
2022-12-04T02:45:40.637Z,1.67
2022-12-04T02:48:13.782Z,1.65
2022-12-04T02:50:47.556Z,1.66
2022-12-04T02:53:27.154Z,1.56
2022-12-04T02:56:02.606Z,1.67
2022-12-04T02:58:40.030Z,1.67
2022-12-04T03:01:21.585Z,1.69
2022-12-04T03:03:59.748Z,1.72
2022-12-04T03:06:34.294Z,1.64
2022-12-04T03:09:20.217Z,1.70
2022-12-04T03:11:55.500Z,1.73
2022-12-04T03:14:33.989Z,1.72
2022-12-04T03:17:18.113Z,1.72
2022-12-04T03:20:00.176Z,1.76
2022-12-04T03:22:33.997Z,1.77
2022-12-04T03:25:06.025Z,1.76
2022-12-04T03:28:02.889Z,1.78
2022-12-04T03:30:39.802Z,1.80
2022-12-04T03:33:19.687Z,1.79
2022-12-04T03:35:55.327Z,1.77
2022-12-04T03:38:39.376Z,1.80
2022-12-04T03:41:22.418Z,1.82
2022-12-04T03:43:59.243Z,1.81
2022-12-04T03:46:40.143Z,1.78
2022-12-04T03:49:23.334Z,1.81
2022-12-04T03:52:10.090Z,1.81
2022-12-04T03:55:00.705Z,1.79
2022-12-04T03:57:36.401Z,1.82
2022-12-04T04:00:17.797Z,1.82
2022-12-04T04:02:54.958Z,1.79
2022-12-04T04:05:27.756Z,1.80
2022-12-04T04:08:21.752Z,1.82
2022-12-04T04:10:56.034Z,1.83
2022-12-04T04:13:53.746Z,1.81
2022-12-04T04:16:46.966Z,1.82
2022-12-04T04:19:38.746Z,1.83
2022-12-04T04:22:28.908Z,1.80
2022-12-04T04:25:06.034Z,1.79
2022-12-04T04:27:36.046Z,1.80
2022-12-04T04:30:08.267Z,1.75
2022-12-04T04:33:05.121Z,1.72
2022-12-04T04:35:55.490Z,1.77
2022-12-04T04:38:36.139Z,1.77
2022-12-04T04:41:19.629Z,1.78
2022-12-04T04:44:15.921Z,1.78
2022-12-04T04:46:52.952Z,1.74
2022-12-04T04:49:26.142Z,1.80
2022-12-04T04:51:57.616Z,1.74
2022-12-04T04:54:29.978Z,1.75
2022-12-04T04:57:00.089Z,1.74
2022-12-04T04:59:30.237Z,1.75
2022-12-04T05:02:00.424Z,1.77
2022-12-04T05:04:30.690Z,1.78
2022-12-04T05:07:00.786Z,1.78
2022-12-04T05:09:35.657Z,1.80
2022-12-04T05:12:08.782Z,1.77
2022-12-04T05:14:38.952Z,1.78
2022-12-04T05:17:12.716Z,1.78
2022-12-04T05:19:57.079Z,1.81
2022-12-04T05:22:30.144Z,1.81
2022-12-04T05:25:01.442Z,1.81
2022-12-04T05:27:34.749Z,1.82
2022-12-04T05:30:05.797Z,1.82
2022-12-04T05:32:36.081Z,1.83
2022-12-04T05:35:11.143Z,1.82
2022-12-04T05:37:41.868Z,1.80
2022-12-04T05:40:12.371Z,1.84
2022-12-04T05:42:42.730Z,1.84
2022-12-04T05:45:13.053Z,1.83
2022-12-04T05:47:44.540Z,1.86
2022-12-04T05:50:14.708Z,1.83
2022-12-04T05:52:44.874Z,1.86
2022-12-04T05:55:15.122Z,1.88
2022-12-04T05:57:45.251Z,1.90
2022-12-04T06:00:16.084Z,1.91
2022-12-04T06:02:46.370Z,1.93
2022-12-04T06:05:16.773Z,1.93
2022-12-04T06:07:47.043Z,1.93
2022-12-04T06:10:17.418Z,1.97
2022-12-04T06:12:47.587Z,1.99
2022-12-04T06:15:17.846Z,2.00
2022-12-04T06:17:48.089Z,1.98
2022-12-04T06:20:18.573Z,1.98
2022-12-04T06:22:48.750Z,1.98
2022-12-04T06:25:19.008Z,1.96
2022-12-04T06:27:49.168Z,1.94
2022-12-04T06:30:19.263Z,1.91
2022-12-04T06:32:49.378Z,1.93
2022-12-04T06:35:19.576Z,1.94
2022-12-04T06:37:49.709Z,1.91
2022-12-04T06:40:19.895Z,1.97
2022-12-04T06:42:50.992Z,1.94
2022-12-04T06:45:22.419Z,1.96
2022-12-04T06:47:52.616Z,1.97
2022-12-04T06:50:22.818Z,1.99
2022-12-04T06:52:53.056Z,1.98
2022-12-04T06:55:23.242Z,2.01
2022-12-04T06:57:53.364Z,1.97
2022-12-04T07:00:23.505Z,1.98
2022-12-04T07:02:53.836Z,2.01
2022-12-04T07:05:24.017Z,2.01
2022-12-04T07:07:54.215Z,2.02
2022-12-04T07:10:24.417Z,2.02
2022-12-04T07:12:54.626Z,2.05
2022-12-04T07:15:24.852Z,2.02
2022-12-04T07:17:55.083Z,2.06
2022-12-04T07:20:25.344Z,2.08
2022-12-04T07:22:55.527Z,2.07
2022-12-04T07:25:25.722Z,2.04
2022-12-04T07:27:56.462Z,2.10
2022-12-04T07:30:26.647Z,2.10
2022-12-04T07:32:56.791Z,2.06
2022-12-04T07:35:26.875Z,2.07
2022-12-04T07:37:57.596Z,2.08
2022-12-04T07:40:27.764Z,2.10
2022-12-04T07:42:57.880Z,2.12
2022-12-04T07:45:28.067Z,2.14
2022-12-04T07:47:58.166Z,2.12
2022-12-04T07:50:28.390Z,2.14
2022-12-04T07:52:58.482Z,2.12
2022-12-04T07:55:28.725Z,2.14
2022-12-04T07:57:58.992Z,2.14
2022-12-04T08:00:29.250Z,2.20
2022-12-04T08:02:59.549Z,2.19
2022-12-04T08:05:29.730Z,2.18
2022-12-04T08:07:59.944Z,2.18
2022-12-04T08:10:30.169Z,2.22
2022-12-04T08:13:01.370Z,2.25
2022-12-04T08:15:31.457Z,2.28
2022-12-04T08:18:01.952Z,2.29
2022-12-04T08:20:32.421Z,2.26
2022-12-04T08:23:02.508Z,2.26
2022-12-04T08:25:33.006Z,2.29
2022-12-04T08:28:03.217Z,2.29
2022-12-04T08:30:34.690Z,2.29
2022-12-04T08:33:04.938Z,2.30
2022-12-04T08:35:35.171Z,2.30
2022-12-04T08:38:05.278Z,2.30
2022-12-04T08:40:35.542Z,2.30
2022-12-04T08:43:05.732Z,2.32
2022-12-04T08:45:35.887Z,2.35
2022-12-04T08:48:06.162Z,2.32
2022-12-04T08:50:36.261Z,2.34
2022-12-04T08:53:06.416Z,2.37
2022-12-04T08:55:36.649Z,2.33
2022-12-04T08:58:06.764Z,2.38
2022-12-04T09:00:38.485Z,2.41
2022-12-04T09:03:13.252Z,2.37
2022-12-04T09:05:45.997Z,2.37
2022-12-04T09:08:17.209Z,2.41
2022-12-04T09:10:47.378Z,2.40
2022-12-04T09:13:17.569Z,2.46
2022-12-04T09:15:47.810Z,2.46
2022-12-04T09:18:18.190Z,2.48
2022-12-04T09:20:57.258Z,2.49
2022-12-04T09:23:28.146Z,2.47
2022-12-04T09:25:58.274Z,2.48
2022-12-04T09:28:28.761Z,2.48
2022-12-04T09:31:00.681Z,2.51
2022-12-04T09:33:31.839Z,2.55
2022-12-04T09:36:03.973Z,2.50
2022-12-04T09:38:34.121Z,2.54
2022-12-04T09:41:22.271Z,2.57
2022-12-04T09:44:02.174Z,2.58
2022-12-04T09:46:37.844Z,2.57
2022-12-04T09:49:15.278Z,2.55
2022-12-04T09:51:45.449Z,2.55
2022-12-04T09:54:24.091Z,2.53
2022-12-04T09:57:00.425Z,2.50
2022-12-04T09:59:33.013Z,2.50
2022-12-04T10:02:19.027Z,2.49
2022-12-04T10:04:49.709Z,2.51
2022-12-04T10:07:31.158Z,2.52
2022-12-04T10:10:03.917Z,2.54
2022-12-04T10:12:46.605Z,2.54
2022-12-04T10:15:37.932Z,2.54
2022-12-04T10:18:17.178Z,2.56
2022-12-04T10:21:18.149Z,2.54
2022-12-04T10:23:54.069Z,2.55
2022-12-04T10:26:31.036Z,2.54
2022-12-04T10:29:08.876Z,2.54
2022-12-04T10:31:45.852Z,2.51
2022-12-04T10:34:25.599Z,2.51
2022-12-04T10:37:01.735Z,2.53
2022-12-04T10:39:38.404Z,2.54
2022-12-04T10:42:27.448Z,2.53
2022-12-04T10:44:58.007Z,2.50
2022-12-04T10:47:29.177Z,2.48
2022-12-04T10:50:03.444Z,2.55
2022-12-04T10:52:33.572Z,2.56
2022-12-04T10:55:03.996Z,2.60
2022-12-04T10:57:54.813Z,2.62
2022-12-04T11:00:29.982Z,2.65
2022-12-04T11:03:02.989Z,2.66
2022-12-04T11:05:37.981Z,2.69
2022-12-04T11:08:08.379Z,2.71
2022-12-04T11:10:44.242Z,2.72
2022-12-04T11:13:18.539Z,2.71
2022-12-04T11:15:51.844Z,2.74
2022-12-04T11:18:25.238Z,2.76
2022-12-04T11:21:13.046Z,2.75
2022-12-04T11:23:48.925Z,2.75
2022-12-04T11:26:42.217Z,2.72
2022-12-04T11:29:16.958Z,2.72
2022-12-04T11:31:53.131Z,2.73
2022-12-04T11:34:29.000Z,2.73
2022-12-04T11:36:59.311Z,2.70
2022-12-04T11:39:40.684Z,2.70
2022-12-04T11:42:13.837Z,2.71
2022-12-04T11:44:52.844Z,2.70
2022-12-04T11:47:26.382Z,2.69
2022-12-04T11:50:14.494Z,2.70
2022-12-04T11:53:10.673Z,2.70
2022-12-04T11:56:00.516Z,2.69
2022-12-04T11:58:46.011Z,2.72
2022-12-04T12:01:43.808Z,2.72
2022-12-04T12:04:26.074Z,2.74
2022-12-04T12:07:20.810Z,2.75
2022-12-04T12:10:02.177Z,2.74
2022-12-04T12:13:00.107Z,2.73
2022-12-04T12:16:04.537Z,2.73
2022-12-04T12:18:43.357Z,2.71
2022-12-04T12:21:27.155Z,2.71
2022-12-04T12:24:22.086Z,2.73
2022-12-04T12:27:07.264Z,2.73
2022-12-04T12:30:05.307Z,2.74
2022-12-04T12:33:15.710Z,2.71
2022-12-04T12:35:58.521Z,2.72
2022-12-04T12:38:43.843Z,2.73
2022-12-04T12:41:21.696Z,2.72
2022-12-04T12:44:03.005Z,2.76
2022-12-04T12:46:50.039Z,2.73
2022-12-04T12:49:52.261Z,2.72
2022-12-04T12:52:44.672Z,2.67
2022-12-04T12:55:31.165Z,2.69
2022-12-04T12:58:10.786Z,2.55
2022-12-04T13:01:06.763Z,2.65
2022-12-04T13:03:58.719Z,2.65
2022-12-04T13:19:32.940Z,2.47
2022-12-04T13:22:05.798Z,2.45
2022-12-04T13:24:36.257Z,2.38
2022-12-04T13:27:29.596Z,2.29
2022-12-04T13:30:13.091Z,2.19
2022-12-04T13:33:24.208Z,1.96
2022-12-04T13:36:09.519Z,2.01
2022-12-04T13:39:21.288Z,1.90
2022-12-04T13:42:04.274Z,1.84
2022-12-04T13:44:35.940Z,1.76
2022-12-04T13:47:08.847Z,1.71
2022-12-04T13:49:46.151Z,1.71
2022-12-04T13:52:25.126Z,1.68
2022-12-04T13:54:59.851Z,1.65
2022-12-04T13:57:30.001Z,1.62
2022-12-04T14:00:33.728Z,1.65
2022-12-04T14:03:19.836Z,1.59
2022-12-04T14:05:50.269Z,1.56
2022-12-04T14:08:20.364Z,1.56
2022-12-04T14:11:04.634Z,1.55
2022-12-04T14:13:47.405Z,1.55
2022-12-04T14:16:29.639Z,1.55
2022-12-04T14:19:02.618Z,1.56
2022-12-04T14:21:47.792Z,1.52
2022-12-04T14:24:39.666Z,1.49
2022-12-04T14:27:36.772Z,1.58
2022-12-04T14:30:35.363Z,1.57
2022-12-04T14:33:23.113Z,1.52
2022-12-04T14:36:38.564Z,1.53
2022-12-04T14:39:20.794Z,1.54
2022-12-04T14:41:51.376Z,1.52
2022-12-04T14:44:29.924Z,1.48
2022-12-04T14:47:34.213Z,1.45
2022-12-04T14:50:28.403Z,1.47
2022-12-04T14:53:43.579Z,1.48
2022-12-04T14:56:32.875Z,1.50
2022-12-04T14:59:16.330Z,1.50
2022-12-04T15:01:48.601Z,1.50
2022-12-04T15:04:36.663Z,1.44
2022-12-04T15:07:06.869Z,1.43
2022-12-04T15:09:55.574Z,1.41
2022-12-04T15:12:34.796Z,1.40
2022-12-04T15:15:27.445Z,1.42
2022-12-04T15:18:10.007Z,1.44
2022-12-04T15:20:48.911Z,1.44
2022-12-04T15:23:34.024Z,1.45
2022-12-04T15:26:10.749Z,1.45
2022-12-04T15:28:50.372Z,1.44
2022-12-04T15:31:24.353Z,1.42
2022-12-04T15:33:59.296Z,1.45
2022-12-04T15:36:54.260Z,1.47
2022-12-04T15:39:27.676Z,1.45
2022-12-04T15:42:24.193Z,1.49
2022-12-04T15:45:01.880Z,1.50
2022-12-04T15:47:51.363Z,1.48
2022-12-04T15:50:27.389Z,1.46
2022-12-04T15:53:07.027Z,1.46
2022-12-04T15:55:46.899Z,1.44
2022-12-04T15:58:27.714Z,1.37
2022-12-04T16:01:01.858Z,1.45
2022-12-04T16:03:36.856Z,1.45
2022-12-04T16:06:15.570Z,1.46
2022-12-04T16:08:48.626Z,1.46
2022-12-04T16:11:24.977Z,1.46
2022-12-04T16:14:04.302Z,1.47
2022-12-04T16:16:38.689Z,1.49
2022-12-04T16:19:15.110Z,1.49
2022-12-04T16:21:45.790Z,1.46
2022-12-04T16:24:15.938Z,1.47
2022-12-04T16:26:46.050Z,1.51
2022-12-04T16:29:16.255Z,1.53
2022-12-04T16:31:46.466Z,1.51
2022-12-04T16:34:17.017Z,1.54
2022-12-04T16:36:47.256Z,1.51
2022-12-04T16:39:17.436Z,1.50
2022-12-04T16:41:47.635Z,1.51
2022-12-04T16:44:17.831Z,1.51
2022-12-04T16:46:51.007Z,1.48
2022-12-04T16:49:21.203Z,1.48
2022-12-04T16:51:51.423Z,1.41
2022-12-04T16:54:21.521Z,1.47
2022-12-04T16:56:51.650Z,1.49
2022-12-04T16:59:22.917Z,1.48
2022-12-04T17:01:53.764Z,1.49
2022-12-04T17:04:23.972Z,1.47
2022-12-04T17:06:55.554Z,1.49
2022-12-04T17:09:25.698Z,1.49
2022-12-04T17:11:56.887Z,1.48
2022-12-04T17:14:27.403Z,1.48
2022-12-04T17:16:58.931Z,1.44
2022-12-04T17:19:29.147Z,1.48
2022-12-04T17:22:01.360Z,1.40
2022-12-04T17:24:31.599Z,1.44
2022-12-04T17:27:02.263Z,1.47
2022-12-04T17:29:32.411Z,1.48
2022-12-04T17:32:02.496Z,1.48
2022-12-04T17:34:32.726Z,1.46
2022-12-04T17:37:02.903Z,1.50
2022-12-04T17:39:33.051Z,1.46
2022-12-04T17:42:03.293Z,1.48
2022-12-04T17:44:33.488Z,1.47
2022-12-04T17:47:10.093Z,1.50
2022-12-04T17:49:40.359Z,1.45
2022-12-04T17:52:10.949Z,1.48
2022-12-04T17:54:41.136Z,1.46
2022-12-04T17:57:11.352Z,1.43
2022-12-04T17:59:42.206Z,1.43
2022-12-04T18:02:13.626Z,1.42
2022-12-04T18:04:44.000Z,1.45
2022-12-04T18:07:14.146Z,1.44
2022-12-04T18:09:44.263Z,1.44
2022-12-04T18:12:14.858Z,1.47
2022-12-04T18:14:45.052Z,1.45
2022-12-04T18:17:17.700Z,1.48
2022-12-04T18:19:47.856Z,1.47
2022-12-04T18:22:18.140Z,1.46
2022-12-04T18:24:48.524Z,1.49
2022-12-04T18:27:18.686Z,1.46
2022-12-04T18:29:48.911Z,1.50
2022-12-04T18:32:19.164Z,1.48
2022-12-04T18:34:49.480Z,1.44
2022-12-04T18:37:19.752Z,1.47
2022-12-04T18:39:51.248Z,1.47
2022-12-04T18:42:21.417Z,1.49
2022-12-04T18:44:52.642Z,1.53
2022-12-04T18:47:23.160Z,1.51
2022-12-04T18:49:53.532Z,1.51
2022-12-04T18:52:23.933Z,1.50
2022-12-04T18:54:54.197Z,1.49
2022-12-04T18:57:24.441Z,1.47
2022-12-04T18:59:54.977Z,1.50
2022-12-04T19:02:25.367Z,1.51
2022-12-04T19:04:55.659Z,1.50
2022-12-04T19:07:25.809Z,1.48
2022-12-04T19:10:10.848Z,1.47
2022-12-04T19:12:41.940Z,1.45
2022-12-04T19:15:12.234Z,1.42
2022-12-04T19:17:42.646Z,1.41
2022-12-04T19:20:14.202Z,1.40
2022-12-04T19:22:44.841Z,1.29
2022-12-04T19:25:15.120Z,1.28
2022-12-04T19:27:45.449Z,1.31
2022-12-04T19:30:15.605Z,1.32
2022-12-04T19:32:45.874Z,1.31
2022-12-04T19:35:16.063Z,1.31
2022-12-04T19:37:52.399Z,1.32
2022-12-04T19:40:23.377Z,1.27
2022-12-04T19:42:59.543Z,1.29
2022-12-04T19:45:32.834Z,1.27
2022-12-04T19:48:02.993Z,1.26
2022-12-04T19:50:33.534Z,1.27
2022-12-04T19:53:03.894Z,1.27
2022-12-04T19:55:36.542Z,1.30
2022-12-04T19:58:07.640Z,1.28
2022-12-04T20:00:37.875Z,1.32
2022-12-04T20:03:08.391Z,1.34
2022-12-04T20:05:38.590Z,1.33
2022-12-04T20:10:38.882Z,1.37
2022-12-04T20:13:09.595Z,1.37
2022-12-04T20:15:40.212Z,1.34
2022-12-04T20:18:24.652Z,1.34
2022-12-04T20:20:56.318Z,1.27
2022-12-04T20:23:27.392Z,1.31
2022-12-04T20:26:04.739Z,1.31
2022-12-04T20:28:35.535Z,1.31
2022-12-04T20:31:19.514Z,1.38
2022-12-04T20:33:51.899Z,1.40
2022-12-04T20:36:23.858Z,1.42
2022-12-04T20:38:58.261Z,1.41
2022-12-04T20:41:33.935Z,1.42
2022-12-04T20:44:11.565Z,1.39
2022-12-04T20:46:43.861Z,1.34
2022-12-04T20:49:21.066Z,1.33
2022-12-04T20:51:56.187Z,1.35
2022-12-04T20:54:26.460Z,1.35
2022-12-04T20:56:57.374Z,1.30
2022-12-04T20:59:27.630Z,1.29
2022-12-04T21:01:59.655Z,1.27
2022-12-04T21:04:29.906Z,1.29
2022-12-04T21:07:00.104Z,1.31
2022-12-04T21:09:31.150Z,1.31
2022-12-04T21:12:01.720Z,1.28
2022-12-04T21:14:51.111Z,1.33
2022-12-04T21:17:24.627Z,1.36
2022-12-04T21:19:55.595Z,1.33
2022-12-04T21:22:26.010Z,1.28
2022-12-04T21:24:56.352Z,1.28
2022-12-04T21:27:26.619Z,1.26
2022-12-04T21:29:57.178Z,1.27
2022-12-04T21:32:28.019Z,1.25
2022-12-04T21:34:58.519Z,1.21
2022-12-04T21:37:30.249Z,1.20
2022-12-04T21:40:00.712Z,1.24
2022-12-04T21:42:31.232Z,1.23
2022-12-04T21:45:05.671Z,1.26
2022-12-04T21:47:37.429Z,1.24
2022-12-04T21:50:08.344Z,1.23
2022-12-04T21:52:39.090Z,1.20
2022-12-04T21:55:09.600Z,1.19
2022-12-04T21:57:39.953Z,1.18
2022-12-04T22:00:10.512Z,1.19
2022-12-04T22:02:40.746Z,1.20
2022-12-04T22:05:10.921Z,1.17
2022-12-04T22:07:41.204Z,1.16
2022-12-04T22:10:11.515Z,1.13
2022-12-04T22:12:49.585Z,1.14
2022-12-04T22:15:20.396Z,1.16
2022-12-04T22:17:50.561Z,1.14
2022-12-04T22:20:20.749Z,1.18
2022-12-04T22:22:55.020Z,1.20
2022-12-04T22:25:25.194Z,1.19
2022-12-04T22:27:55.381Z,1.20
2022-12-04T22:30:26.708Z,1.20
2022-12-04T22:32:56.888Z,1.13
2022-12-04T22:35:27.456Z,1.12
2022-12-04T22:37:57.686Z,1.11
2022-12-04T22:40:27.788Z,1.10
2022-12-04T22:42:57.979Z,1.02
2022-12-04T22:45:28.104Z,1.05
2022-12-04T22:47:58.729Z,1.04
2022-12-04T22:50:28.859Z,0.98
2022-12-04T22:52:59.133Z,1.00
2022-12-04T22:55:29.190Z,1.00
2022-12-04T22:57:59.545Z,1.01
2022-12-04T23:00:29.661Z,1.00
2022-12-04T23:02:59.934Z,1.02
2022-12-04T23:05:30.217Z,1.04
2022-12-04T23:08:03.410Z,1.04
2022-12-04T23:10:37.310Z,1.05
2022-12-04T23:13:07.512Z,1.07
2022-12-04T23:15:39.100Z,1.05
2022-12-04T23:18:09.258Z,1.07
2022-12-04T23:20:39.422Z,1.06
2022-12-04T23:23:09.717Z,1.04
2022-12-04T23:25:43.311Z,1.06
2022-12-04T23:28:13.483Z,1.03
2022-12-04T23:30:47.106Z,0.97
2022-12-04T23:33:17.187Z,0.97
2022-12-04T23:35:52.632Z,0.97
2022-12-04T23:38:24.752Z,1.00
2022-12-04T23:41:25.480Z,1.02
2022-12-04T23:43:55.926Z,1.01
2022-12-04T23:46:32.492Z,1.04
2022-12-04T23:49:02.883Z,1.03
2022-12-04T23:51:33.034Z,0.99
2022-12-04T23:54:03.324Z,1.02
2022-12-04T23:56:33.500Z,1.05
2022-12-04T23:59:03.696Z,1.03
